Time,TemperatureF,DewpointF,PressureIn,WindDirection,WindDirectionDegrees,WindSpeedMPH,WindSpeedGustMPH,Humidity,HourlyPrecipIn,Conditions,Clouds,dailyrainin,SolarRadiationWatts/m^2,SoftwareType,DateUTC
2013-07-05 00:02:00,61.0,36.0,-100.00,ESE,104,2.0,7.0,39,0.00,,,0.00,0.000000,,2013-07-05 06:02:00,
2013-07-05 00:13:00,61.0,36.0,-100.00,ESE,104,2.0,7.0,39,0.00,,,0.00,0.000000,,2013-07-05 06:13:00,
2013-07-05 00:22:00,60.0,37.0,-100.00,East,92,3.0,9.0,43,0.00,,,0.00,0.000000,,2013-07-05 06:22:00,
2013-07-05 00:44:00,60.0,37.0,-100.00,East,92,3.0,9.0,43,0.00,,,0.00,0.000000,,2013-07-05 06:44:00,
2013-07-05 00:53:00,60.0,37.0,-100.00,East,92,3.0,9.0,43,0.00,,,0.00,0.000000,,2013-07-05 06:53:00,
2013-07-05 01:02:00,60.0,37.0,-100.00,East,92,3.0,9.0,43,0.00,,,0.00,0.000000,,2013-07-05 07:02:00,
2013-07-05 01:12:00,60.0,37.0,-100.00,East,92,3.0,9.0,43,0.00,,,0.00,0.000000,,2013-07-05 07:12:00,
2013-07-05 01:22:00,58.0,38.0,-100.00,East,82,2.0,5.0,47,0.00,,,0.00,0.000000,,2013-07-05 07:22:00,
2013-07-05 01:53:00,58.0,38.0,-100.00,East,82,2.0,5.0,47,0.00,,,0.00,0.000000,,2013-07-05 07:53:00,
2013-07-05 02:02:00,58.0,38.0,-100.00,East,82,2.0,5.0,47,0.00,,,0.00,0.000000,,2013-07-05 08:02:00,
2013-07-05 02:12:00,58.0,38.0,-100.00,East,82,2.0,5.0,47,0.00,,,0.00,0.000000,,2013-07-05 08:12:00,
2013-07-05 02:22:00,58.0,38.0,-100.00,East,94,2.0,4.0,48,0.00,,,-99.99,0.000000,,2013-07-05 08:22:00,
2013-07-05 02:44:00,58.0,38.0,-100.00,East,94,2.0,4.0,48,0.00,,,-99.99,0.000000,,2013-07-05 08:44:00,
2013-07-05 02:57:00,58.0,38.0,-100.00,East,94,2.0,4.0,48,0.00,,,-99.99,0.000000,,2013-07-05 08:57:00,
2013-07-05 03:07:00,58.0,38.0,-100.00,East,94,2.0,4.0,48,0.00,,,-99.99,0.000000,,2013-07-05 09:07:00,
2013-07-05 03:15:00,58.0,38.0,-100.00,East,94,2.0,4.0,48,0.00,,,-99.99,0.000000,,2013-07-05 09:15:00,
2013-07-05 03:22:00,58.0,39.0,-100.00,SE,126,3.0,4.0,49,0.00,,,0.00,0.000000,,2013-07-05 09:22:00,
2013-07-05 03:48:00,58.0,39.0,-100.00,SE,126,3.0,4.0,49,0.00,,,0.00,0.000000,,2013-07-05 09:48:00,
2013-07-05 03:56:00,58.0,39.0,-100.00,SE,126,3.0,4.0,49,0.00,,,0.00,0.000000,,2013-07-05 09:56:00,
2013-07-05 04:06:00,58.0,39.0,-100.00,SE,126,3.0,4.0,49,0.00,,,0.00,0.000000,,2013-07-05 10:06:00,
2013-07-05 04:22:00,58.0,38.0,-100.00,East,88,2.0,5.0,47,0.00,,,0.00,0.000000,,2013-07-05 10:22:00,
2013-07-05 04:57:00,58.0,38.0,-100.00,East,88,2.0,5.0,47,0.00,,,0.00,0.000000,,2013-07-05 10:57:00,
2013-07-05 05:07:00,58.0,38.0,-100.00,East,88,2.0,5.0,47,0.00,,,0.00,0.000000,,2013-07-05 11:07:00,
2013-07-05 05:22:00,57.0,38.0,-100.00,SE,134,2.0,3.0,48,0.00,,,0.00,0.000000,,2013-07-05 11:22:00,
2013-07-05 05:50:00,57.0,38.0,-100.00,SE,134,2.0,3.0,48,0.00,,,0.00,0.000000,,2013-07-05 11:50:00,
2013-07-05 06:00:00,57.0,38.0,-100.00,SE,134,2.0,3.0,48,0.00,,,0.00,0.000000,,2013-07-05 12:00:00,
2013-07-05 06:07:00,57.0,38.0,-100.00,SE,134,2.0,3.0,48,0.00,,,0.00,0.000000,,2013-07-05 12:07:00,
2013-07-05 06:15:00,57.0,38.0,-100.00,SE,134,2.0,3.0,48,0.00,,,0.00,0.000000,,2013-07-05 12:15:00,
2013-07-05 06:22:00,55.0,39.0,-100.00,ENE,63,3.0,7.0,54,0.00,,,0.00,5.000000,,2013-07-05 12:22:00,
2013-07-05 06:50:00,55.0,39.0,-100.00,ENE,63,3.0,7.0,54,0.00,,,0.00,5.000000,,2013-07-05 12:50:00,
2013-07-05 07:05:00,55.0,39.0,-100.00,ENE,63,3.0,7.0,54,0.00,,,0.00,5.000000,,2013-07-05 13:05:00,
2013-07-05 07:13:00,55.0,39.0,-100.00,ENE,63,3.0,7.0,54,0.00,,,0.00,5.000000,,2013-07-05 13:13:00,
2013-07-05 07:22:00,59.0,40.0,-100.00,East,91,1.0,4.0,49,0.00,,,0.00,90.000000,,2013-07-05 13:22:00,
2013-07-05 07:49:00,59.0,40.0,-100.00,East,91,1.0,4.0,49,0.00,,,0.00,90.000000,,2013-07-05 13:49:00,
2013-07-05 07:58:00,59.0,40.0,-100.00,East,91,1.0,4.0,49,0.00,,,0.00,90.000000,,2013-07-05 13:58:00,
2013-07-05 08:07:00,59.0,40.0,-100.00,East,91,1.0,4.0,49,0.00,,,0.00,90.000000,,2013-07-05 14:07:00,
2013-07-05 08:47:00,61.0,41.0,-100.00,ENE,65,2.0,3.0,48,0.00,,,0.00,152.000000,,2013-07-05 14:47:00,
2013-07-05 08:57:00,61.0,41.0,-100.00,ENE,65,2.0,3.0,48,0.00,,,0.00,152.000000,,2013-07-05 14:57:00,
2013-07-05 09:05:00,61.0,41.0,-100.00,ENE,65,2.0,3.0,48,0.00,,,0.00,152.000000,,2013-07-05 15:05:00,
2013-07-05 09:15:00,61.0,41.0,-100.00,ENE,65,2.0,3.0,48,0.00,,,0.00,152.000000,,2013-07-05 15:15:00,
2013-07-05 10:02:00,68.0,42.0,-100.00,North,359,2.0,4.0,39,0.00,,,0.00,461.000000,,2013-07-05 16:02:00,
2013-07-05 10:11:00,68.0,42.0,-100.00,North,359,2.0,4.0,39,0.00,,,0.00,461.000000,,2013-07-05 16:11:00,
2013-07-05 10:22:00,71.0,40.0,-100.00,NNW,344,3.0,5.0,33,0.00,,,0.00,802.000000,,2013-07-05 16:22:00,
2013-07-05 10:44:00,71.0,40.0,-100.00,NNW,344,3.0,5.0,33,0.00,,,0.00,802.000000,,2013-07-05 16:44:00,
2013-07-05 10:53:00,71.0,40.0,-100.00,NNW,344,3.0,5.0,33,0.00,,,0.00,802.000000,,2013-07-05 16:53:00,
2013-07-05 11:02:00,71.0,40.0,-100.00,NNW,344,3.0,5.0,33,0.00,,,0.00,802.000000,,2013-07-05 17:02:00,
2013-07-05 11:12:00,71.0,40.0,-100.00,NNW,344,3.0,5.0,33,0.00,,,0.00,802.000000,,2013-07-05 17:12:00,
2013-07-05 11:22:00,71.0,40.0,-100.00,WNW,302,4.0,7.0,33,0.00,,,0.00,744.000000,,2013-07-05 17:22:00,
2013-07-05 11:43:00,71.0,40.0,-100.00,WNW,302,4.0,7.0,33,0.00,,,0.00,744.000000,,2013-07-05 17:43:00,
2013-07-05 11:53:00,71.0,40.0,-100.00,WNW,302,4.0,7.0,33,0.00,,,0.00,744.000000,,2013-07-05 17:53:00,
2013-07-05 12:01:00,71.0,40.0,-100.00,WNW,302,4.0,7.0,33,0.00,,,0.00,744.000000,,2013-07-05 18:01:00,
2013-07-05 12:11:00,71.0,40.0,-100.00,WNW,302,4.0,7.0,33,0.00,,,0.00,744.000000,,2013-07-05 18:11:00,
2013-07-05 12:22:00,73.0,40.0,-100.00,NW,314,4.0,7.0,30,0.00,,,0.00,642.000000,,2013-07-05 18:22:00,
2013-07-05 12:43:00,73.0,40.0,-100.00,NW,314,4.0,7.0,30,0.00,,,0.00,642.000000,,2013-07-05 18:43:00,
2013-07-05 12:53:00,73.0,40.0,-100.00,NW,314,4.0,7.0,30,0.00,,,0.00,642.000000,,2013-07-05 18:53:00,
2013-07-05 13:01:00,73.0,40.0,-100.00,NW,314,4.0,7.0,30,0.00,,,0.00,642.000000,,2013-07-05 19:01:00,
2013-07-05 13:12:00,73.0,40.0,-100.00,NW,314,4.0,7.0,30,0.00,,,0.00,642.000000,,2013-07-05 19:12:00,
2013-07-05 13:22:00,76.0,39.0,-100.00,NW,307,5.0,10.0,26,0.00,,,0.00,887.000000,,2013-07-05 19:22:00,
2013-07-05 13:43:00,76.0,39.0,-100.00,NW,307,5.0,10.0,26,0.00,,,0.00,887.000000,,2013-07-05 19:43:00,
2013-07-05 13:53:00,76.0,39.0,-100.00,NW,307,5.0,10.0,26,0.00,,,0.00,887.000000,,2013-07-05 19:53:00,
2013-07-05 14:01:00,76.0,39.0,-100.00,NW,307,5.0,10.0,26,0.00,,,0.00,887.000000,,2013-07-05 20:01:00,
2013-07-05 14:11:00,76.0,39.0,-100.00,NW,307,5.0,10.0,26,0.00,,,0.00,887.000000,,2013-07-05 20:11:00,
2013-07-05 14:43:00,77.0,41.0,-100.00,WNW,303,6.0,13.0,28,0.00,,,0.00,650.000000,,2013-07-05 20:43:00,
2013-07-05 14:53:00,77.0,41.0,-100.00,WNW,303,6.0,13.0,28,0.00,,,0.00,650.000000,,2013-07-05 20:53:00,
2013-07-05 15:01:00,77.0,41.0,-100.00,WNW,303,6.0,13.0,28,0.00,,,0.00,650.000000,,2013-07-05 21:01:00,
2013-07-05 15:11:00,77.0,41.0,-100.00,WNW,303,6.0,13.0,28,0.00,,,0.00,650.000000,,2013-07-05 21:11:00,
2013-07-05 15:21:00,77.0,41.0,-100.00,WNW,303,6.0,13.0,28,0.00,,,0.00,650.000000,,2013-07-05 21:21:00,
2013-07-05 15:43:00,76.0,40.0,-100.00,WNW,292,6.0,12.0,27,0.00,,,0.00,643.000000,,2013-07-05 21:43:00,
2013-07-05 15:53:00,76.0,40.0,-100.00,WNW,292,6.0,12.0,27,0.00,,,0.00,643.000000,,2013-07-05 21:53:00,
2013-07-05 16:01:00,76.0,40.0,-100.00,WNW,292,6.0,12.0,27,0.00,,,0.00,643.000000,,2013-07-05 22:01:00,
2013-07-05 16:11:00,76.0,40.0,-100.00,WNW,292,6.0,12.0,27,0.00,,,0.00,643.000000,,2013-07-05 22:11:00,
2013-07-05 16:21:00,76.0,40.0,-100.00,WNW,292,6.0,12.0,27,0.00,,,0.00,643.000000,,2013-07-05 22:21:00,
2013-07-05 16:22:00,77.0,38.0,-100.00,NW,308,5.0,11.0,25,0.00,,,0.00,435.000000,,2013-07-05 22:22:00,
2013-07-05 16:43:00,77.0,38.0,-100.00,NW,308,5.0,11.0,25,0.00,,,0.00,435.000000,,2013-07-05 22:43:00,
2013-07-05 16:53:00,77.0,38.0,-100.00,NW,308,5.0,11.0,25,0.00,,,0.00,435.000000,,2013-07-05 22:53:00,
2013-07-05 17:02:00,77.0,38.0,-100.00,NW,308,5.0,11.0,25,0.00,,,0.00,435.000000,,2013-07-05 23:02:00,
2013-07-05 17:11:00,77.0,38.0,-100.00,NW,308,5.0,11.0,25,0.00,,,0.00,435.000000,,2013-07-05 23:11:00,
2013-07-05 17:22:00,79.0,37.0,-100.00,NW,306,5.0,13.0,22,0.00,,,0.00,575.000000,,2013-07-05 23:22:00,
2013-07-05 17:43:00,79.0,37.0,-100.00,NW,306,5.0,13.0,22,0.00,,,0.00,575.000000,,2013-07-05 23:43:00,
2013-07-05 17:53:00,79.0,37.0,-100.00,NW,306,5.0,13.0,22,0.00,,,0.00,575.000000,,2013-07-05 23:53:00,
2013-07-05 18:01:00,79.0,37.0,-100.00,NW,306,5.0,13.0,22,0.00,,,0.00,575.000000,,2013-07-06 00:01:00,
2013-07-05 18:11:00,79.0,37.0,-100.00,NW,306,5.0,13.0,22,0.00,,,0.00,575.000000,,2013-07-06 00:11:00,
2013-07-05 18:22:00,76.0,36.0,-100.00,WNW,294,5.0,10.0,23,0.00,,,0.00,438.000000,,2013-07-06 00:22:00,
2013-07-05 18:53:00,76.0,36.0,-100.00,WNW,294,5.0,10.0,23,0.00,,,0.00,438.000000,,2013-07-06 00:53:00,
2013-07-05 19:02:00,76.0,36.0,-100.00,WNW,294,5.0,10.0,23,0.00,,,0.00,438.000000,,2013-07-06 01:02:00,
2013-07-05 19:12:00,76.0,36.0,-100.00,WNW,294,5.0,10.0,23,0.00,,,0.00,438.000000,,2013-07-06 01:12:00,
2013-07-05 19:22:00,74.0,35.0,-100.00,WNW,286,5.0,11.0,24,0.00,,,0.00,250.000000,,2013-07-06 01:22:00,
2013-07-05 19:43:00,74.0,35.0,-100.00,WNW,286,5.0,11.0,24,0.00,,,0.00,250.000000,,2013-07-06 01:43:00,
2013-07-05 19:53:00,74.0,35.0,-100.00,WNW,286,5.0,11.0,24,0.00,,,0.00,250.000000,,2013-07-06 01:53:00,
2013-07-05 20:02:00,74.0,35.0,-100.00,WNW,286,5.0,11.0,24,0.00,,,0.00,250.000000,,2013-07-06 02:02:00,
2013-07-05 20:12:00,74.0,35.0,-100.00,WNW,286,5.0,11.0,24,0.00,,,0.00,250.000000,,2013-07-06 02:12:00,
2013-07-05 20:22:00,68.0,35.0,-100.00,West,277,3.0,8.0,29,0.00,,,0.00,64.000000,,2013-07-06 02:22:00,
2013-07-05 20:43:00,68.0,35.0,-100.00,West,277,3.0,8.0,29,0.00,,,0.00,64.000000,,2013-07-06 02:43:00,
2013-07-05 20:53:00,68.0,35.0,-100.00,West,277,3.0,8.0,29,0.00,,,0.00,64.000000,,2013-07-06 02:53:00,
2013-07-05 21:02:00,68.0,35.0,-100.00,West,277,3.0,8.0,29,0.00,,,0.00,64.000000,,2013-07-06 03:02:00,
2013-07-05 21:12:00,68.0,35.0,-100.00,West,277,3.0,8.0,29,0.00,,,0.00,64.000000,,2013-07-06 03:12:00,
2013-07-05 22:22:00,63.0,43.0,-100.00,East,88,4.0,6.0,48,0.00,,,0.00,0.000000,,2013-07-06 04:22:00,
2013-07-05 22:43:00,63.0,43.0,-100.00,East,88,4.0,6.0,48,0.00,,,0.00,0.000000,,2013-07-06 04:43:00,
2013-07-05 22:53:00,63.0,43.0,-100.00,East,88,4.0,6.0,48,0.00,,,0.00,0.000000,,2013-07-06 04:53:00,
2013-07-05 23:02:00,63.0,43.0,-100.00,East,88,4.0,6.0,48,0.00,,,0.00,0.000000,,2013-07-06 05:02:00,
2013-07-05 23:12:00,63.0,43.0,-100.00,East,88,4.0,6.0,48,0.00,,,0.00,0.000000,,2013-07-06 05:12:00,
2013-07-05 23:22:00,60.0,41.0,-100.00,East,101,3.0,9.0,49,0.00,,,0.00,0.000000,,2013-07-06 05:22:00,
2013-07-05 23:43:00,60.0,41.0,-100.00,East,101,3.0,9.0,49,0.00,,,0.00,0.000000,,2013-07-06 05:43:00,
2013-07-05 23:53:00,60.0,41.0,-100.00,East,101,3.0,9.0,49,0.00,,,0.00,0.000000,,2013-07-06 05:53:00,